Time;durP1;ratioP1;P1;durP2;ratioP2;P2;SDS_P1;SDS_P2;PMS_P1;PMS_P2;Temp;Humidity;BMP_temperature;BMP_pressure;BME280_temperature;BME280_humidity;BME280_pressure;Samples;Min_cycle;Max_cycle;Signal;HPM_P1;HPM_P2
2021/07/24 00:02:06;;;;;;;12.95;7.78;;;;;;;18.58;82.32;93374.13;5095483;28;20202;-79
2021/07/24 00:04:33;;;;;;;14.93;7.85;;;;;;;18.58;81.36;93376.78;5095269;28;20769;-79
2021/07/24 00:06:59;;;;;;;14.65;7.32;;;;;;;18.62;80.69;93366.50;5095121;28;20194;-79
2021/07/24 00:09:26;;;;;;;15.00;7.57;;;;;;;18.77;79.31;93365.72;5094988;28;20676;-78
2021/07/24 00:11:53;;;;;;;13.93;7.25;;;;;;;18.67;80.40;93358.59;5088876;28;20223;-77
2021/07/24 00:14:21;;;;;;;15.32;7.82;;;;;;;18.72;80.41;93363.88;5074858;28;20205;-78
2021/07/24 00:16:47;;;;;;;15.93;8.25;;;;;;;18.72;80.32;93358.59;5072784;28;20199;-78
2021/07/24 00:19:14;;;;;;;14.80;7.40;;;;;;;18.59;81.50;93348.50;5074548;28;20657;-76
2021/07/24 00:21:40;;;;;;;16.55;7.20;;;;;;;19.06;76.57;93352.84;5077277;28;20210;-77
2021/07/24 00:24:07;;;;;;;16.65;7.38;;;;;;;19.08;75.27;93349.94;5084154;28;20198;-77
2021/07/24 00:26:33;;;;;;;12.48;7.30;;;;;;;19.06;77.73;93350.19;5094612;28;20198;-78
2021/07/24 00:29:02;;;;;;;17.80;7.82;;;;;;;19.00;78.67;93344.13;5094730;28;20198;-76
2021/07/24 00:31:30;;;;;;;18.92;7.72;;;;;;;18.97;77.11;93338.56;5094562;28;20251;-79
2021/07/24 00:33:58;;;;;;;13.25;7.03;;;;;;;18.70;79.12;93339.53;5094521;28;20608;-76
2021/07/24 00:36:25;;;;;;;14.10;7.25;;;;;;;18.80;77.18;93329.00;5094503;28;20357;-79
2021/07/24 00:38:51;;;;;;;15.77;7.25;;;;;;;18.62;81.82;93330.28;5094254;28;20650;-79
2021/07/24 00:41:25;;;;;;;16.80;7.15;;;;;;;18.55;81.62;93336.84;5093950;28;20198;-77
2021/07/24 00:43:52;;;;;;;13.75;7.10;;;;;;;18.47;81.24;93333.66;5094557;28;20202;-79
2021/07/24 00:46:20;;;;;;;14.00;7.70;;;;;;;18.39;82.52;93322.81;5094186;28;20202;-76
2021/07/24 00:48:49;;;;;;;14.32;7.53;;;;;;;18.30;83.58;93325.13;5094257;28;20260;-77
2021/07/24 00:51:25;;;;;;;14.98;7.80;;;;;;;18.22;82.02;93323.00;5093416;28;20202;-78
2021/07/24 00:53:51;;;;;;;13.45;6.95;;;;;;;18.11;84.52;93319.53;5094303;28;20251;-78
2021/07/24 00:56:18;;;;;;;14.85;8.02;;;;;;;18.11;83.66;93322.97;5093689;28;20205;-78
2021/07/24 00:58:44;;;;;;;17.83;8.43;;;;;;;18.09;84.64;93313.72;5093624;28;20460;-76
2021/07/24 01:01:11;;;;;;;14.73;7.88;;;;;;;18.21;82.04;93308.22;5094035;28;20198;-77
2021/07/24 01:03:37;;;;;;;16.48;7.32;;;;;;;18.43;79.97;93303.50;5093949;28;20280;-78
2021/07/24 01:06:05;;;;;;;15.75;7.35;;;;;;;18.30;82.58;93304.81;5093854;28;20198;-77
2021/07/24 01:08:33;;;;;;;14.15;7.15;;;;;;;18.16;84.13;93302.91;5093416;28;20258;-75
2021/07/24 01:11:00;;;;;;;15.35;7.43;;;;;;;18.01;85.22;93301.00;5093956;28;20247;-77
2021/07/24 01:13:26;;;;;;;16.55;7.88;;;;;;;18.20;82.33;93299.50;5093742;28;20233;-78
2021/07/24 01:15:53;;;;;;;20.42;7.57;;;;;;;18.50;79.59;93292.69;5093759;28;20202;-79
2021/07/24 01:18:21;;;;;;;16.08;8.10;;;;;;;18.32;83.16;93288.69;5093691;28;20209;-77
2021/07/24 01:20:49;;;;;;;15.23;6.97;;;;;;;18.53;80.03;93291.38;5093608;28;20198;-78
2021/07/24 01:23:18;;;;;;;16.50;8.02;;;;;;;18.44;80.20;93283.97;5093596;28;20202;-79
2021/07/24 01:25:46;;;;;;;12.73;7.13;;;;;;;18.42;81.29;93282.66;5093656;28;20226;-77
2021/07/24 01:28:13;;;;;;;14.52;7.07;;;;;;;18.46;80.22;93281.84;5093683;28;20194;-76
2021/07/24 01:30:42;;;;;;;13.95;7.53;;;;;;;18.54;78.82;93279.75;5093360;28;20436;-77
2021/07/24 01:33:10;;;;;;;13.25;7.35;;;;;;;18.49;79.08;93286.59;5093386;28;20271;-77
2021/07/24 01:35:37;;;;;;;15.30;7.80;;;;;;;18.33;82.91;93302.69;5093173;28;20235;-77
2021/07/24 01:38:06;;;;;;;15.68;7.68;;;;;;;18.16;82.73;93313.47;5093323;28;20664;-77
2021/07/24 01:40:34;;;;;;;12.10;6.82;;;;;;;18.03;82.83;93312.88;5093403;28;20205;-77
2021/07/24 01:43:01;;;;;;;17.15;8.32;;;;;;;17.91;82.82;93322.88;5092842;28;20799;-78
2021/07/24 01:45:27;;;;;;;11.85;7.45;;;;;;;18.00;83.08;93331.91;5093138;28;20201;-78
2021/07/24 01:47:54;;;;;;;15.55;7.28;;;;;;;17.84;83.98;93335.50;5092967;28;20201;-79
2021/07/24 01:53:07;;;;;;;15.68;7.05;;;;;;;17.48;86.80;93348.47;5092349;28;20244;-76
2021/07/24 01:55:39;;;;;;;17.52;7.85;;;;;;;17.66;85.36;93342.78;5093022;28;20202;-76
2021/07/24 01:58:07;;;;;;;13.75;7.60;;;;;;;17.80;83.48;93347.63;5093066;28;20194;-76
2021/07/24 02:00:34;;;;;;;15.43;8.02;;;;;;;18.01;82.17;93351.19;5092909;28;20711;-77
2021/07/24 02:03:09;;;;;;;14.18;7.68;;;;;;;18.09;81.28;93356.00;5093213;28;20233;-78
2021/07/24 02:05:41;;;;;;;14.95;7.85;;;;;;;18.17;81.16;93352.88;5093127;28;20223;-78
2021/07/24 02:08:09;;;;;;;16.73;7.63;;;;;;;18.23;80.44;93357.09;5093042;28;20241;-75
2021/07/24 02:10:37;;;;;;;14.27;7.00;;;;;;;18.36;79.49;93361.13;5092879;28;20206;-76
2021/07/24 02:13:04;;;;;;;20.45;7.97;;;;;;;18.56;79.02;93370.19;5093071;28;20232;-77
2021/07/24 02:15:32;;;;;;;11.68;7.07;;;;;;;18.62;77.12;93377.88;5092814;28;20202;-76
2021/07/24 02:17:59;;;;;;;16.98;7.38;;;;;;;18.75;77.35;93379.22;5092853;28;20591;-76
2021/07/24 02:20:27;;;;;;;15.35;7.25;;;;;;;18.56;79.71;93372.81;5092948;28;20206;-76
2021/07/24 02:22:55;;;;;;;12.85;7.75;;;;;;;18.32;82.46;93375.91;5092753;28;20213;-78
2021/07/24 02:25:21;;;;;;;15.50;8.25;;;;;;;18.13;84.59;93367.63;5092646;28;20201;-77
2021/07/24 02:27:50;;;;;;;13.10;7.18;;;;;;;18.01;84.94;93381.03;5092912;28;20197;-79
2021/07/24 02:30:17;;;;;;;14.55;7.30;;;;;;;18.04;83.48;93377.88;5092696;28;20660;-77
2021/07/24 02:32:44;;;;;;;16.00;7.18;;;;;;;17.99;86.24;93362.03;5092724;28;20228;-79
2021/07/24 02:35:12;;;;;;;14.15;7.40;;;;;;;17.91;85.70;93367.78;5092581;28;20234;-78
2021/07/24 02:37:39;;;;;;;13.65;7.53;;;;;;;17.92;85.41;93364.88;5092609;28;20198;-77
2021/07/24 02:40:07;;;;;;;15.43;8.10;;;;;;;17.87;86.94;93364.88;5092963;28;20198;-76
2021/07/24 02:42:33;;;;;;;13.95;7.20;;;;;;;17.84;86.87;93354.78;5092836;28;20197;-78
2021/07/24 02:45:01;;;;;;;14.13;7.50;;;;;;;17.90;85.87;93342.41;5092782;28;20194;-76
2021/07/24 02:47:28;;;;;;;13.55;7.53;;;;;;;17.90;86.50;93352.97;5092581;28;20202;-77
2021/07/24 02:49:54;;;;;;;13.80;7.88;;;;;;;17.90;86.28;93340.59;5092653;28;20198;-77
2021/07/24 02:52:21;;;;;;;16.42;7.93;;;;;;;17.91;86.65;93336.88;5092394;28;20286;-77
2021/07/24 02:54:47;;;;;;;18.67;8.48;;;;;;;17.92;86.21;93327.91;5092638;28;20205;-78
2021/07/24 02:57:14;;;;;;;15.52;8.30;;;;;;;17.87;86.51;93319.16;5092602;28;20206;-79
2021/07/24 02:59:40;;;;;;;15.85;7.57;;;;;;;17.82;88.24;93311.16;5092603;28;20201;-77
2021/07/24 03:02:08;;;;;;;15.27;7.85;;;;;;;17.74;88.68;93301.91;5092590;28;20210;-77
2021/07/24 03:04:34;;;;;;;13.93;7.55;;;;;;;17.74;89.31;93292.13;5095467;28;20198;-77
2021/07/24 03:07:01;;;;;;;14.80;7.45;;;;;;;17.74;89.50;93297.41;5096454;28;20221;-77
2021/07/24 03:09:27;;;;;;;16.15;7.30;;;;;;;17.80;88.46;93290.31;5096377;28;20217;-77
2021/07/24 03:11:54;;;;;;;17.02;7.90;;;;;;;17.84;87.76;93293.25;5095639;28;20904;-77
2021/07/24 03:14:20;;;;;;;14.68;7.72;;;;;;;17.84;88.90;93293.25;5096167;28;20222;-77
2021/07/24 03:16:46;;;;;;;14.07;7.18;;;;;;;17.87;87.58;93275.06;5096071;28;20236;-77
2021/07/24 03:19:14;;;;;;;14.15;7.78;;;;;;;18.01;86.73;93280.66;5095958;28;20198;-79
2021/07/24 03:21:41;;;;;;;18.95;7.90;;;;;;;18.07;86.08;93295.47;5095781;28;20723;-78
2021/07/24 03:24:07;;;;;;;16.60;7.85;;;;;;;18.14;85.88;93303.16;5086350;28;20202;-77
2021/07/24 03:26:33;;;;;;;16.17;8.05;;;;;;;18.08;86.92;93302.34;5075592;28;20657;-78
2021/07/24 03:29:00;;;;;;;15.27;8.35;;;;;;;17.81;90.82;93305.09;5075651;28;20604;-78
2021/07/24 03:31:26;;;;;;;16.25;7.97;;;;;;;17.63;90.76;93316.09;5075504;28;20207;-78
2021/07/24 03:33:53;;;;;;;12.48;7.45;;;;;;;17.62;89.78;93304.75;5075316;28;20226;-78
2021/07/24 03:36:21;;;;;;;15.57;7.82;;;;;;;17.49;91.49;93311.28;5075325;28;20234;-78
2021/07/24 03:38:47;;;;;;;20.58;8.00;;;;;;;17.34;94.63;93319.88;5075508;28;20199;-78
2021/07/24 03:41:14;;;;;;;15.90;8.35;;;;;;;17.22;95.81;93314.00;5075473;28;20255;-78
2021/07/24 03:43:41;;;;;;;17.92;8.93;;;;;;;17.13;95.99;93324.19;5081870;28;20247;-78
2021/07/24 03:46:14;;;;;;;20.70;8.23;;;;;;;17.15;95.48;93321.31;5095490;28;20285;-78
2021/07/24 03:48:40;;;;;;;14.55;8.38;;;;;;;17.07;96.91;93316.50;5095754;28;20277;-77
2021/07/24 03:51:09;;;;;;;15.60;8.55;;;;;;;16.99;98.36;93318.56;5095300;28;20675;-77
2021/07/24 03:53:37;;;;;;;15.15;8.20;;;;;;;16.98;100.00;93316.97;5095213;28;20754;-77
2021/07/24 03:56:04;;;;;;;18.45;9.00;;;;;;;16.99;100.00;93312.50;5095177;28;20440;-77
2021/07/24 03:58:31;;;;;;;13.52;7.53;;;;;;;16.96;100.00;93307.72;5095408;28;20221;-78
2021/07/24 04:00:59;;;;;;;18.35;8.15;;;;;;;17.05;100.00;93310.69;5095054;28;20711;-78
2021/07/24 04:03:26;;;;;;;14.88;8.20;;;;;;;17.14;100.00;93312.63;5095391;28;20208;-77
2021/07/24 04:05:53;;;;;;;14.20;7.80;;;;;;;17.18;100.00;93311.03;5095316;28;20194;-78
2021/07/24 04:08:20;;;;;;;17.02;7.75;;;;;;;17.22;100.00;93311.38;5095242;28;20281;-79
2021/07/24 04:10:48;;;;;;;16.27;7.65;;;;;;;17.20;100.00;93310.78;5095089;28;20205;-80
2021/07/24 04:13:15;;;;;;;19.45;8.55;;;;;;;17.23;100.00;93310.28;5094863;28;20232;-79
2021/07/24 04:15:42;;;;;;;20.05;9.15;;;;;;;17.27;100.00;93310.59;5093835;28;20202;-77
2021/07/24 04:18:09;;;;;;;16.63;8.07;;;;;;;17.33;99.04;93328.84;5095050;28;20193;-78
2021/07/24 04:20:37;;;;;;;19.10;8.40;;;;;;;17.34;99.90;93325.16;5094945;28;20198;-79
2021/07/24 04:23:03;;;;;;;17.63;8.30;;;;;;;17.29;100.00;93322.50;5094629;28;20714;-78
2021/07/24 04:25:30;;;;;;;16.45;7.40;;;;;;;17.23;100.00;93331.41;5094748;28;20206;-78
2021/07/24 04:27:57;;;;;;;17.48;7.93;;;;;;;17.19;100.00;93335.59;5094669;28;20198;-78
2021/07/24 04:30:24;;;;;;;14.25;7.57;;;;;;;17.19;100.00;93335.59;5094725;28;20202;-77
2021/07/24 04:32:50;;;;;;;14.60;7.45;;;;;;;17.18;100.00;93344.56;5094694;28;20198;-77
2021/07/24 04:35:17;;;;;;;13.88;8.13;;;;;;;17.19;100.00;93341.66;5094506;28;20233;-79
2021/07/24 04:37:43;;;;;;;19.65;7.97;;;;;;;17.16;100.00;93360.63;5094614;28;20198;-79
2021/07/24 04:40:11;;;;;;;14.15;7.50;;;;;;;17.16;100.00;93339.53;5094487;28;20209;-80
2021/07/24 04:42:38;;;;;;;17.10;8.90;;;;;;;17.22;100.00;93353.56;5093313;28;20439;-79
2021/07/24 04:45:07;;;;;;;13.93;7.50;;;;;;;17.26;100.00;93340.66;5093818;28;20259;-78
2021/07/24 04:47:33;;;;;;;14.60;7.35;;;;;;;17.31;100.00;93351.25;5094432;28;20198;-78
2021/07/24 04:50:00;;;;;;;15.55;7.43;;;;;;;17.42;100.00;93347.66;5094483;28;20255;-77
2021/07/24 04:52:28;;;;;;;14.75;7.07;;;;;;;17.55;100.00;93346.41;5094252;28;20342;-78
2021/07/24 04:54:55;;;;;;;17.15;7.40;;;;;;;17.69;100.00;93352.84;5094144;28;20240;-79
2021/07/24 04:57:22;;;;;;;15.02;7.38;;;;;;;17.74;100.00;93344.16;5094008;28;20194;-79
2021/07/24 04:59:52;;;;;;;14.15;7.70;;;;;;;17.87;100.00;93342.91;5094275;28;20538;-79
2021/07/24 05:02:20;;;;;;;11.93;7.00;;;;;;;18.08;100.00;93352.53;5094089;28;20207;-77
2021/07/24 05:04:48;;;;;;;14.65;6.57;;;;;;;18.26;98.31;93363.72;5094062;28;20194;-78
2021/07/24 05:07:17;;;;;;;16.38;7.80;;;;;;;18.57;98.60;93356.69;5093958;28;20198;-78
2021/07/24 05:09:44;;;;;;;17.50;7.70;;;;;;;18.80;96.94;93373.94;5093859;28;20198;-79
2021/07/24 05:12:11;;;;;;;17.45;7.50;;;;;;;18.76;94.63;93386.09;5094006;28;20270;-79
2021/07/24 05:14:38;;;;;;;17.98;7.50;;;;;;;18.74;90.42;93387.44;5093863;28;20248;-78
2021/07/24 05:17:05;;;;;;;13.45;6.82;;;;;;;18.77;89.09;93392.97;5093740;28;20652;-79
2021/07/24 05:19:36;;;;;;;18.23;7.72;;;;;;;18.93;88.08;93395.69;5093899;28;20553;-78
2021/07/24 05:22:02;;;;;;;16.65;8.13;;;;;;;19.09;82.18;93405.25;5093642;28;20205;-78
2021/07/24 05:24:29;;;;;;;16.08;8.25;;;;;;;19.10;83.44;93411.31;5080798;28;20657;-79
2021/07/24 05:26:55;;;;;;;19.60;8.77;;;;;;;19.04;84.42;93400.72;5073142;28;20460;-79
2021/07/24 05:29:22;;;;;;;13.95;7.85;;;;;;;18.97;85.71;93410.00;5073436;28;20203;-77
2021/07/24 05:31:48;;;;;;;16.00;7.60;;;;;;;18.89;89.29;93403.34;5073222;28;20198;-78
2021/07/24 05:34:15;;;;;;;16.40;8.20;;;;;;;18.89;89.17;93395.41;5072951;28;20230;-78
2021/07/24 05:36:42;;;;;;;14.77;7.78;;;;;;;18.91;90.59;93418.97;5086374;28;20266;-78
2021/07/24 05:39:09;;;;;;;15.30;7.75;;;;;;;18.80;94.72;93415.47;5093650;28;20248;-78
2021/07/24 05:41:35;;;;;;;18.88;7.40;;;;;;;18.78;91.73;93436.88;5093516;28;20201;-78
2021/07/24 05:44:02;;;;;;;16.10;7.85;;;;;;;18.75;89.98;93440.06;5093515;28;20607;-78
2021/07/24 05:46:29;;;;;;;16.10;8.45;;;;;;;18.77;96.11;93448.53;5093328;28;20326;-78
2021/07/24 05:48:55;;;;;;;17.58;8.68;;;;;;;18.64;93.28;93447.16;5093265;28;20227;-78
2021/07/24 05:51:22;;;;;;;18.27;8.40;;;;;;;18.65;92.06;93450.56;5093120;28;20198;-78
2021/07/24 05:53:49;;;;;;;18.88;8.27;;;;;;;18.60;91.63;93450.56;5093342;28;20226;-77
2021/07/24 05:56:16;;;;;;;16.55;8.07;;;;;;;18.52;92.60;93461.63;5093211;28;20198;-78
2021/07/24 05:58:42;;;;;;;17.02;8.80;;;;;;;18.57;93.43;93464.28;5093200;28;20205;-77
2021/07/24 06:01:10;;;;;;;17.30;8.88;;;;;;;18.42;93.47;93468.47;5093155;28;20197;-77
2021/07/24 06:03:37;;;;;;;19.50;9.05;;;;;;;18.22;94.67;93455.13;5093036;28;20284;-78
2021/07/24 06:06:03;;;;;;;22.00;9.60;;;;;;;18.14;96.26;93453.00;5092887;28;20542;-78
2021/07/24 06:08:30;;;;;;;18.25;9.38;;;;;;;18.09;100.00;93467.75;5093177;28;20194;-77
2021/07/24 06:10:59;;;;;;;17.80;9.50;;;;;;;18.12;100.00;93474.38;5093110;28;20193;-77
2021/07/24 06:13:26;;;;;;;18.80;8.85;;;;;;;18.29;100.00;93490.06;5092873;28;20229;-78
2021/07/24 06:15:53;;;;;;;17.58;9.68;;;;;;;18.40;100.00;93518.16;5092932;28;20771;-77
2021/07/24 06:18:20;;;;;;;17.27;9.43;;;;;;;18.56;100.00;93534.91;5092838;28;20278;-80
2021/07/24 06:20:50;;;;;;;23.05;9.55;;;;;;;18.58;100.00;93555.78;5093077;28;20609;-78
2021/07/24 06:23:17;;;;;;;21.13;9.52;;;;;;;18.64;100.00;93552.13;5092971;28;20224;-78
2021/07/24 06:25:44;;;;;;;18.58;9.30;;;;;;;18.73;100.00;93555.88;5092881;28;20293;-78
2021/07/24 06:28:12;;;;;;;19.48;9.05;;;;;;;18.75;100.00;93553.78;5092891;28;20197;-77
2021/07/24 06:30:39;;;;;;;20.38;9.10;;;;;;;18.88;100.00;93567.63;5092717;28;20679;-78
2021/07/24 06:33:06;;;;;;;17.95;8.75;;;;;;;18.86;100.00;93555.44;5092674;28;20202;-80
2021/07/24 06:35:33;;;;;;;14.93;8.30;;;;;;;19.01;100.00;93554.72;5092514;28;20234;-79
2021/07/24 06:38:00;;;;;;;18.15;9.13;;;;;;;19.01;100.00;93527.47;5093564;28;20197;-78
2021/07/24 06:40:26;;;;;;;18.30;9.65;;;;;;;18.89;100.00;93517.13;5096784;28;20668;-79
2021/07/24 06:42:53;;;;;;;15.75;9.05;;;;;;;19.08;100.00;93535.97;5096773;28;20198;-78
2021/07/24 06:45:22;;;;;;;15.30;8.80;;;;;;;19.25;100.00;93543.69;5096641;28;20201;-78
2021/07/24 06:47:48;;;;;;;18.20;8.77;;;;;;;19.59;100.00;93551.22;5096684;28;20279;-78
2021/07/24 06:50:15;;;;;;;15.30;8.60;;;;;;;19.85;100.00;93560.03;5096470;28;20657;-78
2021/07/24 06:52:43;;;;;;;16.88;9.30;;;;;;;20.13;100.00;93553.44;5096810;28;20197;-79
2021/07/24 06:55:10;;;;;;;16.35;9.30;;;;;;;20.05;100.00;93551.31;5096566;28;20557;-80
2021/07/24 06:57:38;;;;;;;18.00;8.43;;;;;;;20.13;100.00;93547.31;5096379;28;20209;-79
2021/07/24 07:00:05;;;;;;;15.52;8.50;;;;;;;20.24;100.00;93548.91;5096344;28;20198;-79
2021/07/24 07:02:33;;;;;;;15.07;8.45;;;;;;;20.00;100.00;93551.31;5096528;28;20198;-79
2021/07/24 07:05:00;;;;;;;18.38;9.23;;;;;;;19.99;100.00;93543.63;5096253;28;20572;-77
2021/07/24 07:07:26;;;;;;;16.67;8.35;;;;;;;19.86;100.00;93548.34;5096413;28;20198;-78
2021/07/24 07:09:52;;;;;;;15.07;8.85;;;;;;;19.87;100.00;93523.47;5096344;28;20589;-78
2021/07/24 07:12:19;;;;;;;16.45;8.75;;;;;;;19.75;100.00;93530.84;5096115;28;20198;-78
2021/07/24 07:14:45;;;;;;;17.02;8.95;;;;;;;19.72;100.00;93540.09;5095969;28;20726;-78
2021/07/24 07:17:13;;;;;;;17.25;8.60;;;;;;;20.00;100.00;93551.31;5096307;28;20599;-79
2021/07/24 07:19:41;;;;;;;17.30;9.45;;;;;;;20.16;100.00;93552.09;5096213;28;20206;-78
2021/07/24 07:22:07;;;;;;;18.73;8.57;;;;;;;20.20;100.00;93560.28;5096068;28;20198;-79
2021/07/24 07:24:34;;;;;;;20.48;9.07;;;;;;;20.37;100.00;93567.97;5095955;28;20204;-79
2021/07/24 07:27:01;;;;;;;16.20;9.35;;;;;;;20.37;100.00;93562.66;5095238;28;20206;-79
2021/07/24 07:29:27;;;;;;;15.35;8.50;;;;;;;20.70;100.00;93578.06;5095855;28;20274;-78
2021/07/24 07:31:53;;;;;;;14.43;7.75;;;;;;;20.89;100.00;93567.66;5095984;28;20198;-77
2021/07/24 07:34:21;;;;;;;19.58;8.90;;;;;;;20.76;100.00;93562.91;5095701;28;20250;-78
2021/07/24 07:36:49;;;;;;;13.50;8.55;;;;;;;20.89;100.00;93546.41;5095804;28;20194;-79
2021/07/24 07:39:16;;;;;;;12.30;7.50;;;;;;;20.46;100.00;93531.91;5095720;28;20209;-78
2021/07/24 07:41:42;;;;;;;15.18;8.57;;;;;;;20.25;100.00;93507.25;5095304;28;20929;-76
2021/07/24 07:44:09;;;;;;;16.65;9.13;;;;;;;19.80;100.00;93485.03;5095728;28;20255;-77
2021/07/24 07:46:35;;;;;;;16.40;8.82;;;;;;;19.72;100.00;93455.34;5095700;28;20210;-79
2021/07/24 07:49:02;;;;;;;17.58;8.45;;;;;;;19.71;100.00;93429.13;5094984;28;20202;-77
2021/07/24 07:51:28;;;;;;;15.15;8.63;;;;;;;19.39;100.00;93393.09;5086919;28;20568;-76
2021/07/24 07:53:56;;;;;;;19.08;9.57;;;;;;;19.31;100.00;93438.63;5095367;28;20207;-78
2021/07/24 07:56:22;;;;;;;19.10;8.90;;;;;;;19.48;100.00;93463.00;5094919;28;20194;-77
2021/07/24 07:58:49;;;;;;;19.23;8.75;;;;;;;19.75;100.00;93456.69;5095234;28;20209;-77
2021/07/24 08:01:15;;;;;;;16.95;8.80;;;;;;;19.95;100.00;93455.88;5095104;28;20672;-77
2021/07/24 08:03:42;;;;;;;17.02;9.38;;;;;;;20.28;100.00;93461.66;5094871;28;20614;-78
2021/07/24 08:06:09;;;;;;;15.40;9.02;;;;;;;20.24;100.00;93457.97;5095791;28;20205;-76
2021/07/24 08:08:35;;;;;;;21.65;9.73;;;;;;;20.02;100.00;93460.91;5100395;28;20202;-78
2021/07/24 08:11:04;;;;;;;16.15;8.65;;;;;;;20.02;100.00;93466.19;5102091;28;20224;-79
2021/07/24 08:13:30;;;;;;;17.88;8.70;;;;;;;19.95;100.00;93458.53;5095515;28;20194;-78
2021/07/24 08:15:57;;;;;;;17.90;8.75;;;;;;;20.13;100.00;93454.53;5094898;28;20237;-78
2021/07/24 08:18:23;;;;;;;17.92;8.75;;;;;;;20.14;100.00;93456.13;5094737;28;20560;-76
2021/07/24 08:20:50;;;;;;;19.60;9.07;;;;;;;20.19;100.00;93466.72;5094799;28;20202;-77
2021/07/24 08:23:17;;;;;;;16.00;8.88;;;;;;;20.37;100.00;93464.56;5094711;28;20213;-78
2021/07/24 08:25:45;;;;;;;18.15;8.98;;;;;;;20.42;100.00;93456.63;5094623;28;20198;-79
2021/07/24 08:28:12;;;;;;;15.35;8.38;;;;;;;20.38;100.00;93450.25;5094736;28;20209;-79
2021/07/24 08:30:39;;;;;;;16.10;8.50;;;;;;;20.25;100.00;93447.09;5094484;28;20209;-79
2021/07/24 08:33:05;;;;;;;17.88;9.00;;;;;;;20.29;100.00;93432.22;5094485;28;20652;-77
2021/07/24 08:35:32;;;;;;;18.42;8.98;;;;;;;20.41;100.00;93415.25;5094517;28;20238;-79
2021/07/24 08:37:59;;;;;;;14.05;8.05;;;;;;;20.40;100.00;93418.94;5094444;28;20263;-78
2021/07/24 08:40:25;;;;;;;13.90;7.57;;;;;;;20.38;100.00;93415.78;5094654;28;20259;-77
2021/07/24 08:42:52;;;;;;;14.68;7.88;;;;;;;20.57;100.00;93416.78;5094448;28;20209;-78
2021/07/24 08:45:20;;;;;;;14.25;7.18;;;;;;;20.67;100.00;93392.88;5094208;28;20686;-77
2021/07/24 08:47:47;;;;;;;16.33;7.70;;;;;;;20.87;100.00;93377.94;5094250;28;20202;-76
2021/07/24 08:50:14;;;;;;;15.55;8.48;;;;;;;21.00;100.00;93361.41;5094110;28;20198;-78
2021/07/24 08:52:42;;;;;;;15.35;7.88;;;;;;;21.47;100.00;93353.91;5094204;28;20615;-76
2021/07/24 08:55:10;;;;;;;14.57;7.47;;;;;;;21.73;100.00;93349.16;5094335;28;20238;-76
2021/07/24 08:57:40;;;;;;;15.25;7.32;;;;;;;22.22;100.00;93352.66;5094243;28;20198;-75
2021/07/24 09:00:11;;;;;;;11.85;7.10;;;;;;;22.52;87.45;93367.47;5094370;28;20209;-77
2021/07/24 09:02:41;;;;;;;15.25;7.05;;;;;;;22.86;93.39;93371.81;5093604;28;20646;-75
2021/07/24 09:05:09;;;;;;;12.05;6.88;;;;;;;23.08;90.35;93368.63;5093929;28;20289;-76
2021/07/24 09:07:39;;;;;;;13.63;7.50;;;;;;;23.07;84.69;93388.34;5093670;28;20436;-76
2021/07/24 09:10:07;;;;;;;13.05;6.30;;;;;;;23.12;86.95;93390.16;5094102;28;20195;-77
2021/07/24 09:12:35;;;;;;;12.20;6.63;;;;;;;23.20;86.60;93400.16;5094063;28;20198;-75
2021/07/24 09:15:01;;;;;;;16.65;6.93;;;;;;;23.59;80.88;93403.59;5093722;28;20723;-76
2021/07/24 09:17:28;;;;;;;13.48;6.35;;;;;;;23.79;78.98;93413.13;5092943;28;20209;-77
2021/07/24 09:19:57;;;;;;;10.73;6.20;;;;;;;24.04;83.24;93425.25;5093847;28;20202;-76
2021/07/24 09:22:28;;;;;;;13.95;6.20;;;;;;;23.80;79.26;93422.72;5093290;28;20251;-75
2021/07/24 09:25:10;;;;;;;11.27;6.30;;;;;;;24.02;76.29;93432.78;5093972;28;20198;-76
2021/07/24 09:27:38;;;;;;;14.18;6.78;;;;;;;23.79;81.31;93423.78;5091497;28;20652;-76
2021/07/24 09:30:05;;;;;;;16.85;6.75;;;;;;;24.13;79.62;93422.72;5093453;28;20327;-76
2021/07/24 09:32:34;;;;;;;10.85;6.68;;;;;;;24.41;84.86;93412.84;5093736;28;20202;-76
2021/07/24 09:35:01;;;;;;;10.63;5.75;;;;;;;24.88;76.09;93410.91;5093118;28;20574;-76
2021/07/24 09:37:29;;;;;;;11.27;6.30;;;;;;;25.15;74.00;93405.78;5093525;28;20202;-76
2021/07/24 09:39:58;;;;;;;11.70;6.20;;;;;;;25.25;73.84;93414.41;5093396;28;20279;-77
2021/07/24 09:42:33;;;;;;;14.70;6.63;;;;;;;24.27;77.61;93402.19;5093327;28;20198;-77
2021/07/24 09:45:07;;;;;;;12.85;6.85;;;;;;;24.78;83.89;93415.66;5093600;28;20197;-75
2021/07/24 09:47:34;;;;;;;12.10;6.53;;;;;;;24.94;74.03;93424.94;5093405;28;20201;-76
2021/07/24 09:50:12;;;;;;;15.10;6.35;;;;;;;24.79;82.22;93426.03;5093314;28;20256;-76
2021/07/24 09:52:46;;;;;;;11.50;6.07;;;;;;;24.10;74.18;93433.97;5093307;28;20205;-75
2021/07/24 09:55:21;;;;;;;10.82;6.50;;;;;;;24.26;71.85;93443.28;5093021;28;20248;-76
2021/07/24 09:57:48;;;;;;;10.95;6.53;;;;;;;24.37;74.85;93442.03;5093330;28;20193;-76
2021/07/24 10:00:26;;;;;;;11.90;6.03;;;;;;;24.46;73.93;93449.34;5093092;28;20653;-75
2021/07/24 10:03:00;;;;;;;11.88;6.32;;;;;;;24.64;68.60;93445.81;5093057;28;20208;-76
2021/07/24 10:05:34;;;;;;;14.18;5.70;;;;;;;24.43;78.56;93457.94;5092961;28;20533;-75
2021/07/24 10:08:04;;;;;;;11.48;6.05;;;;;;;25.03;71.95;93457.88;5093326;28;20292;-76
2021/07/24 10:10:33;;;;;;;10.25;5.90;;;;;;;25.54;73.00;93452.56;5092920;28;20288;-76
2021/07/24 10:13:01;;;;;;;9.90;5.30;;;;;;;26.36;66.94;93456.75;5092238;28;20201;-76
2021/07/24 10:15:37;;;;;;;12.75;5.95;;;;;;;26.12;64.71;93473.16;5092961;28;20230;-76
2021/07/24 10:18:05;;;;;;;9.85;5.25;;;;;;;25.89;64.63;93474.22;5092857;28;20232;-76
2021/07/24 10:20:35;;;;;;;11.57;5.70;;;;;;;25.11;67.86;93473.22;5092995;28;20202;-76
2021/07/24 10:23:02;;;;;;;8.85;5.05;;;;;;;25.17;67.37;93459.75;5092504;28;20202;-76
2021/07/24 10:25:29;;;;;;;11.32;5.55;;;;;;;25.43;66.60;93465.34;5072721;28;20215;-75
2021/07/24 10:27:57;;;;;;;14.18;5.75;;;;;;;25.33;70.80;93469.06;5072667;28;20248;-76
2021/07/24 10:30:29;;;;;;;10.55;5.90;;;;;;;24.70;69.11;93474.00;5072625;28;20308;-77
2021/07/24 10:32:58;;;;;;;13.00;5.68;;;;;;;24.01;71.34;93488.00;5072810;28;20252;-76
2021/07/24 10:35:41;;;;;;;12.13;6.05;;;;;;;22.87;78.55;93484.44;5072428;28;20234;-78
2021/07/24 10:38:30;;;;;;;11.63;6.20;;;;;;;22.29;85.98;93490.66;5072645;28;20209;-77
2021/07/24 10:41:36;;;;;;;11.30;5.95;;;;;;;21.73;88.10;93492.66;5072321;28;20657;-77
2021/07/24 10:44:04;;;;;;;12.20;6.30;;;;;;;21.80;90.12;93477.19;5072746;28;20293;-76
2021/07/24 10:47:10;;;;;;;12.60;6.47;;;;;;;21.90;86.73;93463.03;5071367;28;20465;-76
2021/07/24 10:50:02;;;;;;;12.10;6.00;;;;;;;21.61;90.69;93455.00;5072691;28;20210;-76
2021/07/24 10:53:12;;;;;;;15.07;6.00;;;;;;;21.23;92.86;93436.09;5057100;28;20229;-76
2021/07/24 10:55:46;;;;;;;12.90;6.55;;;;;;;20.87;94.23;93412.44;5072332;28;20207;-76
2021/07/24 10:58:12;;;;;;;14.00;7.57;;;;;;;20.77;96.81;93404.53;5071879;28;20451;-77
2021/07/24 11:00:50;;;;;;;12.70;6.82;;;;;;;20.60;96.08;93410.94;5072494;28;20199;-77
2021/07/24 11:03:39;;;;;;;11.85;6.90;;;;;;;20.64;100.00;93411.22;5072296;28;20670;-78
2021/07/24 11:06:32;;;;;;;15.60;6.90;;;;;;;20.83;97.44;93376.88;5072199;28;20226;-77
2021/07/24 11:09:06;;;;;;;10.50;6.60;;;;;;;21.21;97.52;93355.94;5072265;28;20569;-76
2021/07/24 11:11:42;;;;;;;13.40;6.10;;;;;;;21.81;92.39;93343.22;5072250;28;20735;-78
2021/07/24 11:14:09;;;;;;;14.20;7.05;;;;;;;22.61;90.66;93349.00;5072242;28;20259;-76
2021/07/24 11:17:14;;;;;;;11.52;6.22;;;;;;;23.15;84.43;93346.97;5072459;28;20206;-79
2021/07/24 11:19:42;;;;;;;13.70;7.00;;;;;;;23.16;86.83;93375.16;5072205;28;20248;-79
2021/07/24 11:22:09;;;;;;;12.98;6.93;;;;;;;23.71;89.60;93392.47;5071948;28;20608;-78
2021/07/24 11:24:35;;;;;;;12.77;6.28;;;;;;;24.27;91.39;93410.19;5082114;28;20202;-76
2021/07/24 11:27:04;;;;;;;12.05;5.93;;;;;;;24.71;82.42;93408.84;5084472;28;20226;-77
2021/07/24 11:29:30;;;;;;;12.57;6.32;;;;;;;24.09;79.46;93400.38;5078970;28;20206;-77
2021/07/24 11:32:00;;;;;;;12.73;6.13;;;;;;;24.15;82.75;93420.56;5085067;28;20264;-77